CheckWX is a tool to help pilots better visualize weather data.  It is not intended as a substitute for an official pre-flight weather briefing.

21:04:37 UTC

KFDK METAR
Frederick Municipal Airport
Frederick, Maryland, USA
Current

18 mins ago

KFDK 232047Z 13004KT 10SM BKN034 BKN041 OVC060 05/00 A3029
Observed
Feb-23 @ 20:47 UTC
Wind
  • 130° at 4 KTS
Visibility
10 SM
Flight Rules
VFR
Cloud Levels
  • Broken at 3,400' AGL
  • Broken at 4,100' AGL
  • Overcast at 6,000' AGL
Temperature
C / 41°F
Dewpoint
C / 32°F
Humidity
70%
Altimeter
30.29" Hg
Pressure
1025.72 hPa
Previous

1 hour ago

KFDK 231947Z 00000KT 10SM SKC 05/M01 A3034
Observed
Feb-23 @ 19:47 UTC
Visibility
10 SM
Flight Rules
VFR
Cloud Levels
  • Clear skies
Temperature
C / 41°F
Dewpoint
-1°C / 30°F
Humidity
66%
Altimeter
30.34" Hg
Pressure
1027.42 hPa
Previous

2 hours ago

KFDK 231847Z 00000KT 10SM OVC040 05/M01 A3037
Observed
Feb-23 @ 18:47 UTC
Visibility
10 SM
Flight Rules
VFR
Cloud Levels
  • Overcast at 4,000' AGL
Temperature
C / 41°F
Dewpoint
-1°C / 30°F
Humidity
66%
Altimeter
30.37" Hg
Pressure
1028.42 hPa